createdAt,value
2023-01-22T00:01:19.882Z,-1.60
2023-01-22T00:03:49.036Z,-1.60
2023-01-22T00:06:16.198Z,-1.60
2023-01-22T00:08:43.201Z,-1.60
2023-01-22T00:11:11.982Z,-1.50
2023-01-22T00:13:39.027Z,-1.50
2023-01-22T00:16:07.924Z,-1.50
2023-01-22T00:18:34.952Z,-1.60
2023-01-22T00:21:01.993Z,-1.60
2023-01-22T00:23:28.891Z,-1.50
2023-01-22T00:26:13.382Z,-1.50
2023-01-22T00:28:41.575Z,-1.60
2023-01-22T00:31:12.689Z,-1.50
2023-01-22T00:33:40.711Z,-1.60
2023-01-22T00:36:15.638Z,-1.60
2023-01-22T00:38:42.591Z,-1.50
2023-01-22T00:41:12.231Z,-1.40
2023-01-22T00:43:40.459Z,-1.40
2023-01-22T00:46:12.406Z,-1.50
2023-01-22T00:48:39.800Z,-1.40
2023-01-22T00:51:08.670Z,-1.50
2023-01-22T00:53:43.552Z,-1.50
2023-01-22T00:56:13.728Z,-1.50
2023-01-22T00:58:41.073Z,-1.40
2023-01-22T01:01:08.832Z,-1.40
2023-01-22T01:03:37.540Z,-1.40
2023-01-22T01:06:07.766Z,-1.30
2023-01-22T01:08:40.167Z,-1.30
2023-01-22T01:11:16.236Z,-1.30
2023-01-22T01:13:45.111Z,-1.40
2023-01-22T01:16:21.545Z,-1.30
2023-01-22T01:18:48.895Z,-1.40
2023-01-22T01:21:17.061Z,-1.40
2023-01-22T01:23:44.084Z,-1.50
2023-01-22T01:26:15.697Z,-1.50
2023-01-22T01:28:45.557Z,-1.50
2023-01-22T01:31:16.729Z,-1.50
2023-01-22T01:33:45.222Z,-1.50
2023-01-22T01:36:35.513Z,-1.50
2023-01-22T01:39:09.637Z,-1.50
2023-01-22T01:41:36.693Z,-1.40
2023-01-22T01:44:24.528Z,-1.40
2023-01-22T01:47:05.703Z,-1.30
2023-01-22T01:49:45.213Z,-1.30
2023-01-22T01:52:15.449Z,-1.30
2023-01-22T01:54:51.836Z,-1.30
2023-01-22T01:57:26.786Z,-1.30
2023-01-22T01:59:56.110Z,-1.40
2023-01-22T02:02:23.282Z,-1.40
2023-01-22T02:04:53.214Z,-1.40
2023-01-22T02:07:20.814Z,-1.40
2023-01-22T02:09:47.873Z,-1.40
2023-01-22T02:12:15.053Z,-1.40
2023-01-22T02:14:45.893Z,-1.40
2023-01-22T02:17:21.681Z,-1.40
2023-01-22T02:19:48.909Z,-1.30
2023-01-22T02:22:45.226Z,-1.30
2023-01-22T02:25:12.335Z,-1.20
2023-01-22T02:27:39.193Z,-1.20
2023-01-22T02:30:07.885Z,-1.20
2023-01-22T02:32:34.761Z,-1.30
2023-01-22T02:35:01.628Z,-1.20
2023-01-22T02:37:28.504Z,-1.20
2023-01-22T02:39:55.373Z,-1.20
2023-01-22T02:42:23.621Z,-1.10
2023-01-22T02:44:52.849Z,-1.10
2023-01-22T02:47:20.818Z,-1.20
2023-01-22T02:49:48.009Z,-1.20
2023-01-22T02:52:14.866Z,-1.20
2023-01-22T02:54:41.725Z,-1.10
2023-01-22T02:57:08.766Z,-1.10
2023-01-22T02:59:35.693Z,-1.20
2023-01-22T03:02:02.585Z,-1.20
2023-01-22T03:04:29.730Z,-1.20
2023-01-22T03:06:56.623Z,-1.30
2023-01-22T03:09:23.496Z,-1.30
2023-01-22T03:11:50.619Z,-1.30
2023-01-22T03:14:36.355Z,-1.40
2023-01-22T03:17:22.579Z,-1.30
2023-01-22T03:20:08.058Z,-1.30
2023-01-22T03:22:34.983Z,-1.40
2023-01-22T03:25:02.555Z,-1.40
2023-01-22T03:27:32.033Z,-1.40
2023-01-22T03:29:59.122Z,-1.50
2023-01-22T03:32:26.390Z,-1.50
2023-01-22T03:34:53.741Z,-1.50
2023-01-22T03:37:20.748Z,-1.50
2023-01-22T03:39:47.992Z,-1.40
2023-01-22T03:42:14.904Z,-1.40
2023-01-22T03:44:41.851Z,-1.40
2023-01-22T03:47:08.726Z,-1.30
2023-01-22T03:49:35.597Z,-1.40
2023-01-22T03:52:02.479Z,-1.30
2023-01-22T03:54:29.366Z,-1.40
2023-01-22T03:56:56.276Z,-1.30
2023-01-22T03:59:23.143Z,-1.40
2023-01-22T04:01:50.865Z,-1.40
2023-01-22T04:04:17.720Z,-1.40
2023-01-22T04:06:44.675Z,-1.40
2023-01-22T04:09:11.571Z,-1.40
2023-01-22T04:11:38.491Z,-1.40
2023-01-22T04:14:05.357Z,-1.50
2023-01-22T04:16:32.242Z,-1.50
2023-01-22T04:18:59.339Z,-1.50
2023-01-22T04:21:26.196Z,-1.50
2023-01-22T04:23:53.135Z,-1.50
2023-01-22T04:26:20.065Z,-1.50
2023-01-22T04:28:46.920Z,-1.50
2023-01-22T04:31:13.929Z,-1.40
2023-01-22T04:33:40.899Z,-1.50
2023-01-22T04:36:09.154Z,-1.50
2023-01-22T04:38:36.032Z,-1.50
2023-01-22T04:41:02.904Z,-1.50
2023-01-22T04:43:29.780Z,-1.40
2023-01-22T04:45:56.678Z,-1.40
2023-01-22T04:48:23.543Z,-1.40
2023-01-22T04:50:50.458Z,-1.40
2023-01-22T04:53:17.449Z,-1.40
2023-01-22T04:55:44.326Z,-1.40
2023-01-22T04:58:11.223Z,-1.40
2023-01-22T05:00:38.288Z,-1.40
2023-01-22T05:03:05.471Z,-1.30
2023-01-22T05:05:34.000Z,-1.30
2023-01-22T05:08:01.522Z,-1.40
2023-01-22T05:10:28.888Z,-1.40
2023-01-22T05:12:56.151Z,-1.40
2023-01-22T05:15:24.683Z,-1.40
2023-01-22T05:17:53.325Z,-1.40
2023-01-22T05:20:21.711Z,-1.40
2023-01-22T05:22:49.474Z,-1.40
2023-01-22T05:25:16.582Z,-1.50
2023-01-22T05:27:43.942Z,-1.40
2023-01-22T05:30:12.959Z,-1.50
2023-01-22T05:32:39.912Z,-1.40
2023-01-22T05:35:07.681Z,-1.40
2023-01-22T05:37:34.753Z,-1.40
2023-01-22T05:40:01.814Z,-1.40
2023-01-22T05:42:28.739Z,-1.40
2023-01-22T05:44:55.602Z,-1.40
2023-01-22T05:47:22.444Z,-1.40
2023-01-22T05:49:49.325Z,-1.40
2023-01-22T05:52:16.326Z,-1.40
2023-01-22T05:54:43.216Z,-1.40
2023-01-22T05:57:10.104Z,-1.40
2023-01-22T05:59:36.995Z,-1.40
2023-01-22T06:02:03.993Z,-1.30
2023-01-22T06:04:30.960Z,-1.30
2023-01-22T06:06:57.875Z,-1.30
2023-01-22T06:09:25.378Z,-1.30
2023-01-22T06:11:52.500Z,-1.30
2023-01-22T06:14:19.369Z,-1.30
2023-01-22T06:16:46.438Z,-1.30
2023-01-22T06:19:13.670Z,-1.30
2023-01-22T06:21:41.029Z,-1.30
2023-01-22T06:24:08.192Z,-1.30
2023-01-22T06:26:35.124Z,-1.30
2023-01-22T06:29:01.989Z,-1.30
2023-01-22T06:31:29.093Z,-1.40
2023-01-22T06:33:56.082Z,-1.40
2023-01-22T06:36:23.068Z,-1.40
2023-01-22T06:38:50.181Z,-1.40
2023-01-22T06:41:17.032Z,-1.30
2023-01-22T06:43:44.003Z,-1.40
2023-01-22T06:46:10.965Z,-1.40
2023-01-22T06:48:37.885Z,-1.40
2023-01-22T06:51:05.118Z,-1.40
2023-01-22T06:53:35.823Z,-1.40
2023-01-22T06:56:03.547Z,-1.40
2023-01-22T06:58:31.061Z,-1.30
2023-01-22T07:01:05.761Z,-1.40
2023-01-22T07:03:32.852Z,-1.40
2023-01-22T07:06:04.112Z,-1.40
2023-01-22T07:08:33.512Z,-1.30
2023-01-22T07:11:01.390Z,-1.30
2023-01-22T07:13:28.327Z,-1.30
2023-01-22T07:15:55.331Z,-1.30
2023-01-22T07:18:23.789Z,-1.30
2023-01-22T07:20:51.197Z,-1.20
2023-01-22T07:23:18.155Z,-1.20
2023-01-22T07:25:45.914Z,-1.20
2023-01-22T07:28:15.328Z,-1.10
2023-01-22T07:30:46.253Z,-1.00
2023-01-22T07:33:14.490Z,-1.00
2023-01-22T07:35:42.224Z,-0.90
2023-01-22T07:38:09.597Z,-0.80
2023-01-22T07:40:36.656Z,-0.80
2023-01-22T07:43:07.649Z,-0.80
2023-01-22T07:45:35.440Z,-0.70
2023-01-22T07:48:02.608Z,-0.70
2023-01-22T07:50:31.911Z,-0.60
2023-01-22T07:53:00.506Z,-0.60
2023-01-22T07:55:28.409Z,-0.60
2023-01-22T07:58:06.178Z,-0.50
2023-01-22T08:00:36.286Z,-0.50
2023-01-22T08:03:10.314Z,-0.40
2023-01-22T08:05:42.727Z,-0.40
2023-01-22T08:08:22.399Z,-0.30
2023-01-22T08:10:49.503Z,-0.20
2023-01-22T08:13:16.442Z,-0.10
2023-01-22T08:15:43.891Z,0.00
2023-01-22T08:18:12.206Z,0.10
2023-01-22T08:20:39.201Z,0.30
2023-01-22T08:23:06.051Z,0.40
2023-01-22T08:25:32.974Z,0.50
2023-01-22T08:28:04.947Z,0.50
2023-01-22T08:30:45.450Z,0.60
2023-01-22T08:33:12.977Z,0.70
2023-01-22T08:35:39.967Z,0.70
2023-01-22T08:38:06.889Z,0.80
2023-01-22T08:40:33.883Z,0.80
2023-01-22T08:43:00.759Z,0.80
2023-01-22T08:45:27.740Z,1.00
2023-01-22T08:47:59.706Z,1.20
2023-01-22T08:50:28.745Z,1.30
2023-01-22T08:52:59.080Z,1.40
2023-01-22T08:55:27.712Z,1.40
2023-01-22T08:57:57.219Z,1.30
2023-01-22T09:00:25.399Z,1.20
2023-01-22T09:03:55.699Z,1.20
2023-01-22T09:06:23.119Z,1.20
2023-01-22T09:08:50.057Z,1.20
2023-01-22T09:11:17.374Z,1.30
2023-01-22T09:13:44.252Z,1.40
2023-01-22T09:16:12.036Z,1.60
2023-01-22T09:18:40.013Z,1.80
2023-01-22T09:21:08.572Z,1.90
2023-01-22T09:23:35.538Z,2.10
2023-01-22T09:26:02.563Z,2.30
2023-01-22T09:28:29.439Z,2.40
2023-01-22T09:30:56.501Z,2.50
2023-01-22T09:33:23.559Z,2.30
2023-01-22T09:35:50.448Z,2.40
2023-01-22T09:38:18.623Z,2.30
2023-01-22T09:40:58.504Z,2.30
2023-01-22T09:43:46.428Z,2.30
2023-01-22T09:46:29.083Z,2.30
2023-01-22T09:49:17.284Z,2.30
2023-01-22T09:52:05.344Z,2.40
2023-01-22T09:54:34.067Z,2.30
2023-01-22T09:57:13.008Z,2.30
2023-01-22T09:59:56.631Z,2.20
2023-01-22T10:02:38.111Z,2.20
2023-01-22T10:05:42.991Z,2.30
2023-01-22T10:08:26.696Z,2.50
2023-01-22T10:10:54.350Z,2.30
2023-01-22T10:13:34.867Z,2.50
2023-01-22T10:16:04.015Z,2.70
2023-01-22T10:18:54.230Z,2.80
2023-01-22T10:21:45.716Z,2.80
2023-01-22T10:24:13.510Z,2.90
2023-01-22T10:26:54.432Z,3.10
2023-01-22T10:29:33.853Z,3.30
2023-01-22T10:32:22.457Z,3.30
2023-01-22T10:35:19.784Z,3.20
2023-01-22T10:37:55.153Z,3.30
2023-01-22T10:40:40.836Z,3.30
2023-01-22T10:43:17.775Z,3.30
2023-01-22T10:46:01.880Z,3.50
2023-01-22T10:48:28.761Z,3.30
2023-01-22T10:51:27.310Z,3.30
2023-01-22T10:53:58.151Z,3.20
2023-01-22T10:56:36.104Z,3.00
2023-01-22T10:59:22.876Z,3.00
2023-01-22T11:02:00.633Z,3.10
2023-01-22T11:04:33.752Z,3.20
2023-01-22T11:07:32.684Z,3.30
2023-01-22T11:10:25.795Z,3.50
2023-01-22T11:13:26.066Z,3.70
2023-01-22T11:16:20.623Z,3.90
2023-01-22T11:19:06.875Z,4.10
2023-01-22T11:21:44.218Z,4.20
2023-01-22T11:24:25.510Z,4.40
2023-01-22T11:27:19.446Z,4.30
2023-01-22T11:30:38.704Z,4.10
2023-01-22T11:33:58.879Z,4.00
2023-01-22T11:37:05.582Z,4.10
2023-01-22T11:39:57.318Z,3.60
2023-01-22T11:43:05.107Z,3.40
2023-01-22T11:46:26.538Z,3.20
2023-01-22T11:49:42.726Z,3.00
2023-01-22T11:52:33.428Z,3.00
2023-01-22T11:55:16.639Z,2.80
2023-01-22T11:58:11.612Z,2.80
2023-01-22T12:01:24.368Z,2.80
2023-01-22T12:04:25.898Z,2.70
2023-01-22T12:07:41.281Z,2.80
2023-01-22T12:10:13.627Z,2.90
2023-01-22T12:13:19.290Z,3.20
2023-01-22T12:16:40.339Z,3.40
2023-01-22T12:20:08.221Z,3.30
2023-01-22T12:22:55.991Z,2.90
2023-01-22T12:26:14.617Z,2.80
2023-01-22T12:28:58.248Z,2.80
2023-01-22T12:32:02.430Z,3.00
2023-01-22T12:34:41.788Z,3.10
2023-01-22T12:37:18.732Z,3.20
2023-01-22T12:40:24.855Z,3.50
2023-01-22T12:43:05.185Z,3.80
2023-01-22T12:45:56.851Z,4.00
2023-01-22T12:48:56.829Z,4.00
2023-01-22T12:51:50.659Z,3.90
2023-01-22T12:54:27.503Z,3.60
2023-01-22T12:57:14.039Z,3.40
2023-01-22T12:59:58.155Z,3.30
2023-01-22T13:02:37.834Z,3.10
2023-01-22T13:05:30.968Z,2.70
2023-01-22T13:08:16.829Z,2.40
2023-01-22T13:11:08.284Z,2.10
2023-01-22T13:14:13.669Z,2.00
2023-01-22T13:16:51.741Z,1.80
2023-01-22T13:19:40.403Z,1.70
2023-01-22T13:22:16.560Z,1.60
2023-01-22T13:24:59.344Z,1.60
2023-01-22T13:27:36.205Z,1.60
2023-01-22T13:30:26.820Z,1.70
2023-01-22T13:33:16.181Z,1.80
2023-01-22T13:35:46.242Z,1.90
2023-01-22T13:38:21.018Z,2.00
2023-01-22T13:41:25.917Z,2.10
2023-01-22T13:43:53.033Z,2.30
2023-01-22T13:46:20.114Z,2.40
2023-01-22T13:48:47.149Z,2.40
2023-01-22T13:51:21.551Z,2.40
2023-01-22T13:53:54.819Z,2.40
2023-01-22T13:56:27.653Z,2.50
2023-01-22T13:59:34.952Z,2.60
2023-01-22T14:02:20.164Z,2.80
2023-01-22T14:04:49.191Z,2.80
2023-01-22T14:07:39.515Z,2.90
2023-01-22T14:10:24.829Z,3.00
2023-01-22T14:13:09.170Z,3.00
2023-01-22T14:15:38.929Z,2.90
2023-01-22T14:18:16.092Z,2.70
2023-01-22T14:20:46.737Z,2.60
2023-01-22T14:23:15.422Z,2.30
2023-01-22T14:25:51.375Z,2.00
2023-01-22T14:28:21.643Z,1.90
2023-01-22T14:30:50.116Z,1.90
2023-01-22T14:33:26.579Z,1.90
2023-01-22T14:35:55.134Z,1.80
2023-01-22T14:38:25.556Z,1.80
2023-01-22T14:40:53.830Z,1.70
2023-01-22T14:43:21.406Z,1.70
2023-01-22T14:45:48.756Z,1.60
2023-01-22T14:48:20.433Z,1.50
2023-01-22T14:50:49.741Z,1.40
2023-01-22T14:53:19.407Z,1.30
2023-01-22T14:55:46.899Z,1.30
2023-01-22T14:58:16.086Z,1.30
2023-01-22T15:00:44.389Z,1.20
2023-01-22T15:03:11.541Z,1.00
2023-01-22T15:05:38.511Z,0.90
2023-01-22T15:08:06.371Z,0.80
2023-01-22T15:10:34.366Z,0.60
2023-01-22T15:13:07.174Z,0.60
2023-01-22T15:15:34.090Z,0.50
2023-01-22T15:18:01.271Z,0.40
2023-01-22T15:20:29.111Z,0.40
2023-01-22T15:22:56.075Z,0.50
2023-01-22T15:25:23.235Z,0.40
2023-01-22T15:27:50.369Z,0.40
2023-01-22T15:30:18.038Z,0.40
2023-01-22T15:32:45.203Z,0.40
2023-01-22T15:35:12.642Z,0.40
2023-01-22T15:37:47.349Z,0.40
2023-01-22T15:40:15.569Z,0.40
2023-01-22T15:42:42.569Z,0.30
2023-01-22T15:45:10.307Z,0.40
2023-01-22T15:47:37.353Z,0.30
2023-01-22T15:50:07.196Z,0.30
2023-01-22T15:52:34.506Z,0.30
2023-01-22T15:55:01.701Z,0.30
2023-01-22T15:57:28.621Z,0.30
2023-01-22T15:59:55.562Z,0.30
2023-01-22T16:02:22.542Z,0.30
2023-01-22T16:04:49.592Z,0.30
2023-01-22T16:07:16.614Z,0.20
2023-01-22T16:09:43.617Z,0.20
2023-01-22T16:12:10.696Z,0.20
2023-01-22T16:14:37.637Z,0.20
2023-01-22T16:17:04.757Z,0.10
2023-01-22T16:19:31.674Z,0.10
2023-01-22T16:21:58.662Z,0.10
2023-01-22T16:24:25.599Z,0.10
2023-01-22T16:26:52.559Z,0.10
2023-01-22T16:29:19.481Z,0.10
2023-01-22T16:31:46.458Z,0.10
2023-01-22T16:34:18.229Z,0.10
2023-01-22T16:36:45.525Z,0.10
2023-01-22T16:39:23.471Z,0.10
2023-01-22T16:41:52.823Z,0.10
2023-01-22T16:44:27.271Z,0.00
2023-01-22T16:46:57.722Z,0.00
2023-01-22T16:49:30.397Z,0.00
2023-01-22T16:52:21.410Z,0.00
2023-01-22T16:54:49.670Z,0.00
2023-01-22T16:57:17.956Z,0.00
2023-01-22T16:59:46.107Z,0.00
2023-01-22T17:02:16.480Z,0.00
2023-01-22T17:04:44.744Z,0.00
2023-01-22T17:07:27.418Z,0.00
2023-01-22T17:09:58.956Z,0.00
2023-01-22T17:12:26.379Z,0.00
2023-01-22T17:14:53.293Z,0.00
2023-01-22T17:17:20.206Z,0.00
2023-01-22T17:19:47.182Z,0.00
2023-01-22T17:22:14.147Z,-0.10
2023-01-22T17:24:41.641Z,-0.10
2023-01-22T17:27:08.721Z,-0.10
2023-01-22T17:29:36.193Z,0.00
2023-01-22T17:32:04.497Z,-0.10
2023-01-22T17:34:31.649Z,0.00
2023-01-22T17:36:58.556Z,0.00
2023-01-22T17:39:25.531Z,0.00
2023-01-22T17:41:52.454Z,0.00
2023-01-22T17:44:19.711Z,-0.10
2023-01-22T17:46:48.934Z,-0.10
2023-01-22T17:49:15.888Z,0.00
2023-01-22T17:51:43.745Z,0.00
2023-01-22T17:54:10.715Z,-0.10
2023-01-22T17:56:45.431Z,-0.10
2023-01-22T17:59:13.079Z,0.00
2023-01-22T18:01:40.914Z,-0.10
2023-01-22T18:04:13.367Z,-0.10
2023-01-22T18:06:43.975Z,-0.10
2023-01-22T18:09:12.647Z,-0.10
2023-01-22T18:11:41.870Z,-0.10
2023-01-22T18:14:22.008Z,-0.10
2023-01-22T18:16:50.747Z,-0.10
2023-01-22T18:19:18.896Z,-0.10
2023-01-22T18:21:46.153Z,-0.10
2023-01-22T18:24:13.665Z,-0.10
2023-01-22T18:26:41.484Z,0.00
2023-01-22T18:29:10.099Z,0.00
2023-01-22T18:31:37.910Z,0.00
2023-01-22T18:34:08.993Z,-0.10
2023-01-22T18:36:39.255Z,-0.10
2023-01-22T18:39:17.627Z,-0.10
2023-01-22T18:41:46.855Z,0.00
2023-01-22T18:44:16.066Z,0.00
2023-01-22T18:46:47.348Z,0.00
2023-01-22T18:49:19.150Z,0.00
2023-01-22T18:51:46.287Z,-0.10
2023-01-22T18:54:13.695Z,-0.10
2023-01-22T18:56:41.361Z,-0.10
2023-01-22T18:59:12.870Z,-0.20
2023-01-22T19:01:41.008Z,-0.20
2023-01-22T19:04:17.839Z,-0.20
2023-01-22T19:06:52.235Z,-0.20
2023-01-22T19:09:20.536Z,-0.20
2023-01-22T19:11:52.648Z,-0.30
2023-01-22T19:14:21.400Z,-0.30
2023-01-22T19:16:53.279Z,-0.30
2023-01-22T19:19:25.622Z,-0.30
2023-01-22T19:21:58.616Z,-0.30
2023-01-22T19:24:28.447Z,-0.30
2023-01-22T19:26:57.605Z,-0.40
2023-01-22T19:29:30.844Z,-0.40
2023-01-22T19:31:57.959Z,-0.50
2023-01-22T19:34:25.991Z,-0.40
2023-01-22T19:37:06.245Z,-0.40
2023-01-22T19:39:35.909Z,-0.50
2023-01-22T19:42:06.614Z,-0.40
2023-01-22T19:44:35.427Z,-0.40
2023-01-22T19:47:03.562Z,-0.40
2023-01-22T19:49:31.144Z,-0.40
2023-01-22T19:51:59.460Z,-0.40
2023-01-22T19:54:26.857Z,-0.50
2023-01-22T19:56:54.219Z,-0.50
2023-01-22T19:59:23.822Z,-0.50
2023-01-22T20:01:51.909Z,-0.50
2023-01-22T20:04:29.689Z,-0.50
2023-01-22T20:07:01.580Z,-0.50
2023-01-22T20:09:30.760Z,-0.50
2023-01-22T20:11:59.202Z,-0.50
2023-01-22T20:14:33.810Z,-0.50
2023-01-22T20:17:03.120Z,-0.60
2023-01-22T20:19:31.419Z,-0.50
2023-01-22T20:22:00.416Z,-0.60
2023-01-22T20:24:28.236Z,-0.50
2023-01-22T20:26:58.105Z,-0.50
2023-01-22T20:29:26.088Z,-0.50
2023-01-22T20:31:54.663Z,-0.50
2023-01-22T20:34:23.422Z,-0.60
2023-01-22T20:36:51.507Z,-0.50
2023-01-22T20:39:19.664Z,-0.60
2023-01-22T20:41:47.261Z,-0.60
2023-01-22T20:44:14.979Z,-0.60
2023-01-22T20:46:44.525Z,-0.60
2023-01-22T20:49:13.197Z,-0.60
2023-01-22T20:51:42.559Z,-0.60
2023-01-22T20:54:10.984Z,-0.60
2023-01-22T20:56:38.644Z,-0.60
2023-01-22T20:59:12.040Z,-0.60
2023-01-22T21:01:39.800Z,-0.60
2023-01-22T21:04:07.543Z,-0.60
2023-01-22T21:06:36.827Z,-0.60
2023-01-22T21:09:06.087Z,-0.70
2023-01-22T21:11:40.700Z,-0.70
2023-01-22T21:14:20.572Z,-0.70
2023-01-22T21:16:48.988Z,-0.70
2023-01-22T21:19:23.763Z,-0.70
2023-01-22T21:21:52.603Z,-0.60
2023-01-22T21:24:20.420Z,-0.60
2023-01-22T21:26:47.409Z,-0.60
2023-01-22T21:29:20.844Z,-0.60
2023-01-22T21:31:51.665Z,-0.60
2023-01-22T21:34:23.971Z,-0.60
2023-01-22T21:36:54.190Z,-0.60
2023-01-22T21:39:29.538Z,-0.60
2023-01-22T21:42:16.152Z,-0.60
2023-01-22T21:45:03.144Z,-0.60
2023-01-22T21:47:30.705Z,-0.60
2023-01-22T21:49:57.697Z,-0.60
2023-01-22T21:52:26.102Z,-0.60
2023-01-22T21:54:52.956Z,-0.50
2023-01-22T21:57:19.820Z,-0.50
2023-01-22T21:59:46.964Z,-0.40
2023-01-22T22:02:17.503Z,-0.40
2023-01-22T22:04:45.140Z,-0.50
2023-01-22T22:07:12.950Z,-0.40
2023-01-22T22:09:40.310Z,-0.40
2023-01-22T22:12:07.335Z,-0.40
2023-01-22T22:14:34.269Z,-0.30
2023-01-22T22:17:01.148Z,-0.30
2023-01-22T22:19:28.811Z,-0.30
2023-01-22T22:21:55.879Z,-0.30
2023-01-22T22:24:23.042Z,-0.20
2023-01-22T22:26:50.192Z,-0.20
2023-01-22T22:29:17.163Z,-0.20
2023-01-22T22:31:44.376Z,-0.20
2023-01-22T22:34:11.328Z,-0.20
2023-01-22T22:36:39.036Z,-0.20
2023-01-22T22:39:06.735Z,-0.20
2023-01-22T22:41:37.021Z,-0.20
2023-01-22T22:44:05.453Z,-0.20
2023-01-22T22:46:38.169Z,-0.20
2023-01-22T22:49:07.264Z,-0.20
2023-01-22T22:51:41.928Z,-0.30
2023-01-22T22:54:18.551Z,-0.20
2023-01-22T22:56:51.166Z,-0.20
2023-01-22T22:59:19.664Z,-0.10
2023-01-22T23:01:50.883Z,-0.20
2023-01-22T23:04:18.076Z,-0.20
2023-01-22T23:06:46.254Z,-0.20
2023-01-22T23:09:21.889Z,-0.20
2023-01-22T23:11:55.759Z,-0.20
2023-01-22T23:14:23.403Z,-0.20
2023-01-22T23:16:50.781Z,-0.20
2023-01-22T23:19:26.066Z,-0.20
2023-01-22T23:21:58.504Z,-0.20
2023-01-22T23:24:27.673Z,-0.10
2023-01-22T23:26:55.376Z,-0.10
2023-01-22T23:29:26.522Z,-0.10
2023-01-22T23:31:53.943Z,-0.10
2023-01-22T23:34:22.754Z,-0.10
2023-01-22T23:36:51.404Z,-0.10
2023-01-22T23:39:21.640Z,-0.10
2023-01-22T23:41:48.611Z,-0.10
2023-01-22T23:44:15.566Z,-0.10
2023-01-22T23:46:42.795Z,0.00
2023-01-22T23:49:10.668Z,-0.10
2023-01-22T23:51:40.916Z,-0.10
2023-01-22T23:54:08.743Z,-0.10
2023-01-22T23:56:35.875Z,-0.10
2023-01-22T23:59:03.619Z,-0.10
